Time;durP1;ratioP1;P1;durP2;ratioP2;P2;SDS_P1;SDS_P2;PMS_P1;PMS_P2;Temp;Humidity;BMP_temperature;BMP_pressure;BME280_temperature;BME280_humidity;BME280_pressure;Samples;Min_cycle;Max_cycle;Signal;HPM_P1;HPM_P2
2024/01/23 04:01:49;;;;;;;2.03;0.80;;;22.00;27.80;;;;;;5354224;22;46925;-83
2024/01/23 04:04:15;;;;;;;3.35;1.00;;;22.10;28.40;;;;;;4948974;28;45492;-82
2024/01/23 04:06:41;;;;;;;3.20;1.10;;;22.00;27.90;;;;;;4942096;28;45190;-81
2024/01/23 04:09:09;;;;;;;4.00;1.20;;;22.00;27.90;;;;;;4948446;28;44935;-83
2024/01/23 04:11:35;;;;;;;2.22;0.80;;;22.00;27.90;;;;;;4948679;28;46356;-84
2024/01/23 04:14:01;;;;;;;2.45;0.80;;;22.00;27.90;;;;;;4936349;28;45257;-81
2024/01/23 04:16:26;;;;;;;2.10;1.00;;;22.00;27.90;;;;;;4917030;28;45311;-82
2024/01/23 04:18:55;;;;;;;2.37;0.90;;;22.00;27.90;;;;;;4931561;28;45020;-84
2024/01/23 04:21:21;;;;;;;2.85;0.80;;;22.00;27.90;;;;;;4939733;28;45915;-82
2024/01/23 04:23:47;;;;;;;2.78;0.82;;;22.00;27.90;;;;;;4934984;28;45077;-84
2024/01/23 04:26:15;;;;;;;3.40;1.10;;;22.00;27.90;;;;;;4954687;28;45191;-83
2024/01/23 04:28:41;;;;;;;2.05;0.93;;;22.00;27.90;;;;;;4952374;28;45448;-82
2024/01/23 04:31:07;;;;;;;3.28;1.10;;;22.00;27.90;;;;;;4939480;28;45564;-84
2024/01/23 04:33:33;;;;;;;3.47;1.10;;;22.00;27.90;;;;;;4940146;28;44652;-82
2024/01/23 04:35:59;;;;;;;1.83;0.90;;;22.00;27.90;;;;;;4948771;28;45350;-82
2024/01/23 04:38:25;;;;;;;3.13;0.93;;;22.00;27.90;;;;;;4951710;28;45622;-83
2024/01/23 04:40:51;;;;;;;2.73;1.03;;;22.00;27.90;;;;;;4950936;28;46345;-84
2024/01/23 04:43:17;;;;;;;2.20;0.90;;;22.00;27.90;;;;;;4950042;28;45083;-85
2024/01/23 04:45:43;;;;;;;2.10;0.90;;;22.00;27.90;;;;;;4947503;28;45305;-82
2024/01/23 04:48:10;;;;;;;2.63;1.10;;;22.00;27.90;;;;;;4946727;28;45334;-81
2024/01/23 04:50:36;;;;;;;1.70;0.90;;;22.00;27.90;;;;;;4949330;28;47008;-83
2024/01/23 04:53:05;;;;;;;2.50;0.97;;;22.00;27.90;;;;;;4953634;28;44855;-85
2024/01/23 04:55:31;;;;;;;1.70;0.80;;;22.00;27.90;;;;;;4952202;28;45038;-82
2024/01/23 04:57:57;;;;;;;2.65;0.93;;;22.00;27.90;;;;;;4967465;28;45547;-83
2024/01/23 05:00:25;;;;;;;2.17;0.83;;;22.00;27.90;;;;;;4949879;28;45770;-83
2024/01/23 05:02:51;;;;;;;2.97;0.98;;;22.00;28.00;;;;;;4981823;28;44961;-84
2024/01/23 05:05:17;;;;;;;2.25;1.00;;;21.90;27.90;;;;;;4964549;28;44974;-82
2024/01/23 05:07:43;;;;;;;2.20;1.00;;;21.90;28.00;;;;;;4974759;28;45500;-84
2024/01/23 05:10:13;;;;;;;1.98;0.90;;;21.90;28.00;;;;;;4958008;28;46138;-87
2024/01/23 05:12:41;;;;;;;2.88;1.00;;;21.90;28.00;;;;;;4960181;28;44829;-82
2024/01/23 05:15:11;;;;;;;2.92;1.00;;;21.90;28.00;;;;;;4987360;28;44954;-83
2024/01/23 05:17:40;;;;;;;2.30;0.90;;;21.80;28.00;;;;;;4958748;28;45207;-86
2024/01/23 05:20:08;;;;;;;3.22;1.13;;;21.80;28.00;;;;;;4947665;28;46290;-83
2024/01/23 05:22:35;;;;;;;2.22;1.00;;;21.80;28.00;;;;;;4962928;28;44922;-83
2024/01/23 05:25:02;;;;;;;2.90;1.00;;;21.80;28.00;;;;;;4976771;28;45227;-84
2024/01/23 05:27:31;;;;;;;2.17;0.90;;;21.80;28.00;;;;;;4962563;28;45025;-84
2024/01/23 05:29:56;;;;;;;2.87;1.10;;;21.80;28.00;;;;;;4949342;28;47310;-82
2024/01/23 05:32:22;;;;;;;4.87;1.30;;;21.80;28.00;;;;;;4941909;28;45072;-82
2024/01/23 05:34:48;;;;;;;3.40;1.20;;;21.80;28.00;;;;;;4950224;28;45207;-83
2024/01/23 05:37:14;;;;;;;3.70;1.10;;;21.80;28.10;;;;;;4943815;28;45504;-81
2024/01/23 05:39:40;;;;;;;3.57;1.10;;;21.70;28.00;;;;;;4948450;28;46465;-82
2024/01/23 05:42:06;;;;;;;2.57;1.00;;;21.80;28.10;;;;;;4939690;28;45095;-83
2024/01/23 05:44:32;;;;;;;2.40;1.13;;;21.80;28.10;;;;;;4949755;28;45227;-82
2024/01/23 05:46:58;;;;;;;2.13;0.98;;;21.80;28.10;;;;;;4957995;28;44960;-81
2024/01/23 05:49:26;;;;;;;3.08;1.20;;;21.70;28.10;;;;;;4964560;28;64969;-83
2024/01/23 05:51:52;;;;;;;3.45;1.27;;;21.70;28.10;;;;;;4989650;28;45079;-82
2024/01/23 05:54:18;;;;;;;2.85;1.23;;;21.80;28.20;;;;;;4980841;28;45138;-82
2024/01/23 05:56:47;;;;;;;2.10;1.02;;;21.70;28.10;;;;;;4975463;28;45443;-84
2024/01/23 05:59:13;;;;;;;2.53;1.00;;;21.70;28.10;;;;;;4987017;28;45692;-83
2024/01/23 06:01:39;;;;;;;2.70;1.17;;;21.70;28.10;;;;;;4975867;28;45405;-82
2024/01/23 06:04:08;;;;;;;2.88;1.10;;;21.70;28.10;;;;;;4980655;28;45198;-85
2024/01/23 06:06:41;;;;;;;2.38;1.00;;;21.70;28.20;;;;;;4974172;28;45151;-85
2024/01/23 06:09:08;;;;;;;3.00;1.00;;;21.70;28.20;;;;;;4961076;28;45444;-84
2024/01/23 06:11:34;;;;;;;2.38;1.20;;;21.70;28.20;;;;;;4977385;28;45342;-82
2024/01/23 06:14:00;;;;;;;3.45;1.10;;;21.60;28.20;;;;;;4973036;28;45202;-82
2024/01/23 06:16:26;;;;;;;2.42;1.10;;;21.60;28.20;;;;;;4969456;28;45264;-83
2024/01/23 06:18:52;;;;;;;2.35;0.90;;;21.60;28.20;;;;;;4971314;28;47169;-83
2024/01/23 06:21:18;;;;;;;2.77;1.03;;;21.60;28.20;;;;;;4943000;28;45146;-82
2024/01/23 06:23:44;;;;;;;3.35;1.27;;;21.60;28.20;;;;;;4943936;28;45161;-85
2024/01/23 06:26:10;;;;;;;1.90;0.83;;;21.60;28.20;;;;;;4939033;28;46142;-82
2024/01/23 06:28:36;;;;;;;2.23;0.93;;;21.60;28.20;;;;;;4992840;28;45182;-84
2024/01/23 06:31:02;;;;;;;3.03;0.95;;;21.60;28.20;;;;;;4968189;28;45064;-82
2024/01/23 06:33:28;;;;;;;2.97;0.93;;;21.60;28.20;;;;;;4992498;28;44972;-83
2024/01/23 06:35:54;;;;;;;2.22;0.90;;;21.60;28.30;;;;;;4968342;28;45155;-82
2024/01/23 06:38:20;;;;;;;1.98;0.90;;;21.60;28.30;;;;;;4961301;28;47907;-84
2024/01/23 06:40:46;;;;;;;1.83;0.70;;;21.60;28.30;;;;;;4956756;28;45073;-83
2024/01/23 06:43:12;;;;;;;3.37;1.03;;;21.60;28.30;;;;;;4963893;28;44681;-83
2024/01/23 06:45:38;;;;;;;2.33;0.85;;;21.50;28.20;;;;;;4955367;28;45426;-83
2024/01/23 06:48:05;;;;;;;2.07;0.63;;;21.50;28.30;;;;;;4994878;28;46483;-83
2024/01/23 06:50:31;;;;;;;1.40;0.80;;;21.50;28.20;;;;;;4965802;28;45094;-85
2024/01/23 06:52:56;;;;;;;2.17;0.77;;;21.50;28.20;;;;;;4958068;28;45431;-82
2024/01/23 06:55:22;;;;;;;2.93;1.10;;;21.60;28.30;;;;;;4960350;28;44879;-82
2024/01/23 06:57:48;;;;;;;1.73;0.70;;;21.50;28.20;;;;;;4976551;28;46367;-85
2024/01/23 07:00:17;;;;;;;2.08;0.85;;;21.50;28.30;;;;;;4971301;28;45490;-84
2024/01/23 07:02:43;;;;;;;2.28;0.80;;;21.50;28.20;;;;;;4975471;28;45248;-82
2024/01/23 07:05:09;;;;;;;1.90;0.80;;;21.50;28.30;;;;;;4942847;28;45326;-87
2024/01/23 07:07:35;;;;;;;2.03;0.77;;;21.50;28.80;;;;;;4938638;28;45616;-82
2024/01/23 07:10:01;;;;;;;1.87;0.77;;;21.50;28.30;;;;;;4932707;28;44876;-83
2024/01/23 07:12:27;;;;;;;1.95;0.75;;;21.50;28.30;;;;;;4937820;28;46473;-83
2024/01/23 07:14:54;;;;;;;1.88;0.73;;;21.50;28.30;;;;;;4957836;28;45627;-82
2024/01/23 07:17:22;;;;;;;2.53;1.00;;;21.50;28.30;;;;;;4956788;28;46677;-82
2024/01/23 07:19:49;;;;;;;1.73;0.73;;;21.50;28.30;;;;;;4940752;28;44969;-85
2024/01/23 07:22:14;;;;;;;3.72;0.82;;;21.50;28.30;;;;;;4931639;28;45224;-82
2024/01/23 07:24:40;;;;;;;2.80;0.77;;;21.50;28.30;;;;;;4963405;28;44897;-83
2024/01/23 07:27:07;;;;;;;1.65;0.60;;;21.50;28.30;;;;;;4940162;28;46360;-82
2024/01/23 07:29:35;;;;;;;1.37;0.60;;;21.50;28.30;;;;;;4977056;28;44941;-82
2024/01/23 07:32:01;;;;;;;1.87;0.70;;;21.50;28.30;;;;;;4972690;28;45250;-83
2024/01/23 07:34:27;;;;;;;1.92;0.80;;;21.40;28.30;;;;;;5002576;28;44841;-86
2024/01/23 07:36:52;;;;;;;1.48;0.63;;;21.50;28.40;;;;;;4945948;28;45925;-83
2024/01/23 07:39:18;;;;;;;1.70;0.75;;;21.40;28.30;;;;;;4958690;28;44635;-82
2024/01/23 07:41:44;;;;;;;1.77;0.90;;;21.50;28.40;;;;;;4944519;28;45336;-83
2024/01/23 07:44:10;;;;;;;2.43;0.70;;;21.50;28.30;;;;;;4958117;28;45279;-83
2024/01/23 07:46:36;;;;;;;1.33;0.80;;;21.40;28.30;;;;;;4952012;28;46147;-81
2024/01/23 07:49:02;;;;;;;1.83;0.70;;;21.50;28.40;;;;;;4955616;28;45253;-84
2024/01/23 07:51:28;;;;;;;1.63;0.70;;;21.40;28.40;;;;;;4938429;28;45175;-84
2024/01/23 07:53:54;;;;;;;1.50;0.60;;;21.40;28.40;;;;;;4974782;28;44777;-83
2024/01/23 07:56:20;;;;;;;2.73;0.90;;;21.50;28.40;;;;;;4940054;28;46252;-83
2024/01/23 07:58:46;;;;;;;1.52;0.63;;;21.40;28.40;;;;;;4960024;28;45540;-82
2024/01/23 08:01:12;;;;;;;2.40;0.98;;;21.40;28.40;;;;;;4941419;28;45389;-84
2024/01/23 08:03:39;;;;;;;2.47;1.00;;;21.40;28.40;;;;;;4974816;28;45331;-83
2024/01/23 08:06:05;;;;;;;3.13;1.10;;;21.40;28.90;;;;;;4970573;28;46319;-85
2024/01/23 08:08:30;;;;;;;2.15;0.98;;;21.40;28.40;;;;;;4985781;28;44723;-82
2024/01/23 08:10:57;;;;;;;3.08;1.10;;;21.40;28.50;;;;;;4961751;28;44691;-82
2024/01/23 08:13:23;;;;;;;2.33;1.00;;;21.40;28.50;;;;;;4976077;28;45503;-82
2024/01/23 08:15:49;;;;;;;1.77;1.00;;;21.40;28.50;;;;;;4964739;28;45379;-87
2024/01/23 08:18:14;;;;;;;3.07;1.10;;;21.40;28.50;;;;;;4959710;28;45035;-83
2024/01/23 08:20:40;;;;;;;1.80;0.73;;;21.40;28.50;;;;;;4957250;28;44735;-82
2024/01/23 08:23:06;;;;;;;2.47;1.10;;;21.40;28.50;;;;;;4998693;28;45448;-84
2024/01/23 08:25:32;;;;;;;3.37;1.10;;;21.40;28.50;;;;;;4963410;28;45590;-82
2024/01/23 08:27:59;;;;;;;2.75;1.15;;;21.40;28.50;;;;;;4978937;28;44865;-82
2024/01/23 08:30:25;;;;;;;2.43;1.10;;;21.30;28.40;;;;;;4943268;28;44852;-84
2024/01/23 08:32:51;;;;;;;2.93;1.10;;;21.30;28.40;;;;;;4962790;28;45581;-83
2024/01/23 08:35:17;;;;;;;2.65;1.13;;;21.30;28.40;;;;;;4957063;28;46510;-85
2024/01/23 08:37:43;;;;;;;3.85;1.30;;;21.30;28.40;;;;;;4977677;28;45517;-83
2024/01/23 08:40:11;;;;;;;2.58;1.20;;;21.30;28.40;;;;;;4961664;28;45294;-83
2024/01/23 08:42:37;;;;;;;2.70;1.23;;;21.30;28.40;;;;;;4978462;28;45634;-83
2024/01/23 08:45:11;;;;;;;2.60;1.10;;;21.30;28.40;;;;;;4978303;28;46230;-86
2024/01/23 08:47:37;;;;;;;2.72;1.20;;;21.30;28.50;;;;;;4977821;28;44607;-84
2024/01/23 08:50:09;;;;;;;2.20;1.13;;;21.30;28.40;;;;;;4960982;28;45043;-84
2024/01/23 08:52:35;;;;;;;3.17;1.33;;;21.30;28.50;;;;;;4962199;28;45452;-82
2024/01/23 08:55:02;;;;;;;2.97;1.30;;;21.30;28.50;;;;;;4978429;28;45363;-83
2024/01/23 08:57:32;;;;;;;2.78;1.20;;;21.30;28.50;;;;;;4988042;28;44701;-83
2024/01/23 08:59:58;;;;;;;4.25;1.30;;;21.30;28.50;;;;;;4965406;28;44854;-82
2024/01/23 09:02:24;;;;;;;3.07;1.27;;;21.30;28.50;;;;;;4954537;28;45474;-83
2024/01/23 09:04:50;;;;;;;3.00;1.40;;;21.30;28.50;;;;;;5011737;28;45631;-84
2024/01/23 09:07:18;;;;;;;3.13;1.47;;;21.30;28.50;;;;;;4992399;28;45172;-82
2024/01/23 09:09:44;;;;;;;4.18;1.33;;;21.30;28.60;;;;;;4977229;28;44932;-85
2024/01/23 09:12:10;;;;;;;4.25;1.48;;;21.20;28.50;;;;;;4956315;28;44758;-83
2024/01/23 09:14:36;;;;;;;2.80;1.40;;;21.30;28.60;;;;;;4987819;28;46476;-83
2024/01/23 09:17:02;;;;;;;3.38;1.30;;;21.20;28.60;;;;;;4957013;28;45300;-84
2024/01/23 09:19:27;;;;;;;3.27;1.43;;;21.20;28.60;;;;;;4959456;28;45013;-82
2024/01/23 09:21:54;;;;;;;3.83;1.33;;;21.20;28.60;;;;;;4985802;28;45147;-83
2024/01/23 09:24:20;;;;;;;4.07;1.77;;;21.20;28.60;;;;;;4951901;28;46207;-83
2024/01/23 09:26:46;;;;;;;3.83;1.50;;;21.20;28.60;;;;;;4972276;28;44917;-82
2024/01/23 09:29:11;;;;;;;2.78;1.40;;;21.20;28.60;;;;;;4998008;28;45577;-84
2024/01/23 09:31:44;;;;;;;3.67;1.40;;;21.20;28.60;;;;;;4954809;28;45557;-82
2024/01/23 09:34:10;;;;;;;4.37;1.70;;;21.20;28.70;;;;;;4962808;28;47507;-85
2024/01/23 09:36:36;;;;;;;3.75;1.50;;;21.20;28.60;;;;;;4955659;28;45577;-85
2024/01/23 09:39:02;;;;;;;4.07;1.50;;;21.10;28.60;;;;;;4959872;28;45167;-83
2024/01/23 09:41:28;;;;;;;2.70;1.48;;;21.20;28.70;;;;;;4950646;28;45248;-84
2024/01/23 09:43:53;;;;;;;2.63;1.33;;;21.10;28.60;;;;;;4946284;28;46994;-83
2024/01/23 09:46:20;;;;;;;4.63;1.60;;;21.10;28.70;;;;;;4944270;28;45060;-83
2024/01/23 09:48:47;;;;;;;3.58;1.52;;;21.10;28.70;;;;;;4974199;28;45148;-83
2024/01/23 09:51:14;;;;;;;3.23;1.40;;;21.00;28.70;;;;;;4998272;23;45026;-86
2024/01/23 09:53:43;;;;;;;4.70;1.50;;;21.10;28.70;;;;;;4995470;28;46053;-82
2024/01/23 09:56:12;;;;;;;3.33;1.52;;;21.00;28.70;;;;;;4986856;28;45056;-82
2024/01/23 09:58:38;;;;;;;3.15;1.42;;;21.00;28.70;;;;;;5005840;28;44853;-82
2024/01/23 10:01:04;;;;;;;3.20;1.60;;;21.00;28.70;;;;;;4977819;28;45046;-83
2024/01/23 10:03:32;;;;;;;3.90;1.65;;;21.10;28.80;;;;;;4970844;28;45631;-83
2024/01/23 10:05:58;;;;;;;3.72;1.40;;;21.00;28.80;;;;;;4946773;28;44693;-83
2024/01/23 10:08:25;;;;;;;3.57;1.50;;;21.00;28.80;;;;;;4978427;28;44888;-82
2024/01/23 10:11:01;;;;;;;3.78;1.52;;;21.00;28.80;;;;;;4976023;28;44921;-82
2024/01/23 10:13:27;;;;;;;4.20;1.57;;;21.00;28.80;;;;;;4996681;28;45905;-82
2024/01/23 10:15:56;;;;;;;3.25;1.50;;;21.00;28.80;;;;;;4955202;28;45479;-82
2024/01/23 10:18:22;;;;;;;3.70;1.53;;;21.00;28.80;;;;;;4951123;28;45004;-85
2024/01/23 10:20:48;;;;;;;3.33;1.33;;;21.00;28.80;;;;;;4989854;28;44912;-84
2024/01/23 10:23:14;;;;;;;3.03;1.33;;;21.00;28.90;;;;;;4949820;28;46204;-84
2024/01/23 10:25:40;;;;;;;4.68;1.55;;;21.00;28.90;;;;;;4964335;28;45051;-83
2024/01/23 10:28:10;;;;;;;2.97;1.48;;;21.00;28.90;;;;;;4948114;28;44925;-82
2024/01/23 10:31:00;;;;;;;3.97;1.50;;;20.90;28.90;;;;;;4972403;28;45205;-82
2024/01/23 10:33:26;;;;;;;3.03;1.10;;;21.00;28.90;;;;;;4988561;28;46221;-82
2024/01/23 10:35:53;;;;;;;3.67;1.35;;;20.90;28.90;;;;;;4972705;28;45606;-84
2024/01/23 10:38:19;;;;;;;3.60;1.50;;;20.90;28.90;;;;;;4984908;28;44956;-84
2024/01/23 10:40:45;;;;;;;4.20;1.60;;;20.90;28.90;;;;;;4970971;28;46110;-84
2024/01/23 10:43:12;;;;;;;5.68;1.63;;;21.00;29.00;;;;;;4963478;28;45662;-82
2024/01/23 10:45:40;;;;;;;4.07;1.58;;;20.90;28.90;;;;;;4959043;28;45636;-82
2024/01/23 10:48:07;;;;;;;3.80;1.52;;;20.90;29.40;;;;;;4961108;28;45067;-85
2024/01/23 10:50:34;;;;;;;4.00;1.45;;;20.90;29.00;;;;;;4964942;28;45560;-82
2024/01/23 10:53:05;;;;;;;2.70;1.30;;;21.00;29.00;;;;;;4959425;28;46324;-82
2024/01/23 10:55:32;;;;;;;3.47;1.40;;;20.90;29.40;;;;;;4945590;28;45536;-82
2024/01/23 10:57:59;;;;;;;4.18;1.50;;;21.00;29.00;;;;;;4965820;28;44986;-82
2024/01/23 11:00:25;;;;;;;3.30;1.40;;;20.90;29.00;;;;;;4963346;28;45544;-82
2024/01/23 11:03:00;;;;;;;4.03;1.58;;;20.90;29.00;;;;;;4937373;28;45785;-82
2024/01/23 11:06:01;;;;;;;3.88;1.40;;;20.90;29.00;;;;;;4943908;28;45344;-83
2024/01/23 11:08:46;;;;;;;3.58;1.48;;;20.90;29.00;;;;;;4966202;28;45166;-83
2024/01/23 11:11:27;;;;;;;3.35;1.25;;;20.90;29.00;;;;;;4967212;28;44798;-82
2024/01/23 11:13:59;;;;;;;4.18;1.50;;;20.90;29.10;;;;;;4966584;28;46218;-82
2024/01/23 11:16:25;;;;;;;4.57;1.73;;;20.90;29.10;;;;;;4972316;28;45051;-82
2024/01/23 11:18:54;;;;;;;3.87;1.40;;;20.90;29.10;;;;;;4984757;28;44879;-83
2024/01/23 11:21:24;;;;;;;3.63;1.40;;;20.90;29.10;;;;;;4987744;28;45466;-85
2024/01/23 11:24:02;;;;;;;3.35;1.50;;;20.90;29.10;;;;;;4962231;28;45438;-82
2024/01/23 11:26:28;;;;;;;3.95;1.38;;;20.90;29.10;;;;;;4971970;28;45621;-82
2024/01/23 11:29:24;;;;;;;4.13;1.70;;;20.80;29.10;;;;;;4962426;28;45786;-83
2024/01/23 11:31:51;;;;;;;4.90;1.45;;;20.80;29.10;;;;;;4949601;28;45332;-84
2024/01/23 11:34:25;;;;;;;3.70;1.60;;;20.80;29.10;;;;;;4954003;28;45486;-82
2024/01/23 11:36:51;;;;;;;4.00;1.50;;;20.80;29.20;;;;;;4956638;28;45288;-83
2024/01/23 11:39:22;;;;;;;4.77;1.60;;;20.80;29.20;;;;;;4963518;28;44919;-84
2024/01/23 11:41:52;;;;;;;2.70;1.20;;;20.80;29.30;;;;;;4964392;28;44993;-83
2024/01/23 11:44:18;;;;;;;3.80;1.40;;;20.90;29.40;;;;;;4955307;28;46219;-83
2024/01/23 11:46:48;;;;;;;5.10;1.40;;;20.80;29.40;;;;;;4959788;28;45047;-84
2024/01/23 11:49:14;;;;;;;4.82;1.50;;;20.80;29.40;;;;;;4948041;28;45149;-82
2024/01/23 11:51:39;;;;;;;3.73;1.50;;;20.80;29.40;;;;;;4944155;28;45450;-83
2024/01/23 11:54:09;;;;;;;3.10;1.30;;;20.80;29.40;;;;;;4930269;28;46046;-82
2024/01/23 11:56:36;;;;;;;5.20;1.63;;;20.90;29.50;;;;;;4956137;28;45614;-83
2024/01/23 11:59:02;;;;;;;2.88;1.30;;;20.90;29.50;;;;;;4958930;28;45004;-83
2024/01/23 12:01:31;;;;;;;3.28;1.35;;;20.90;29.50;;;;;;4939328;28;45314;-82
2024/01/23 12:04:05;;;;;;;4.55;1.40;;;20.90;29.50;;;;;;4945275;28;46413;-84
2024/01/23 12:06:31;;;;;;;3.83;1.60;;;20.90;29.60;;;;;;4957125;28;44808;-82
2024/01/23 12:08:56;;;;;;;3.13;1.20;;;20.90;29.60;;;;;;4943954;28;45294;-84
2024/01/23 12:11:22;;;;;;;3.42;1.50;;;21.00;29.60;;;;;;4946693;28;45588;-82
2024/01/23 12:13:48;;;;;;;4.15;1.63;;;21.00;29.60;;;;;;4930486;28;46791;-82
2024/01/23 12:16:15;;;;;;;3.75;1.65;;;21.00;29.60;;;;;;4938166;28;45078;-82
2024/01/23 12:18:41;;;;;;;4.43;1.40;;;21.00;29.60;;;;;;4946204;28;44945;-82
2024/01/23 12:21:07;;;;;;;3.47;1.33;;;21.00;29.60;;;;;;4955415;28;45228;-83
2024/01/23 12:23:32;;;;;;;4.07;1.40;;;21.00;29.70;;;;;;4956563;28;45544;-83
2024/01/23 12:25:59;;;;;;;3.43;1.20;;;21.00;29.60;;;;;;4943623;28;45741;-82
2024/01/23 12:28:29;;;;;;;3.13;1.20;;;21.10;29.70;;;;;;4949899;28;45300;-81
2024/01/23 12:30:55;;;;;;;4.35;1.40;;;21.10;29.70;;;;;;4959775;28;45552;-82
2024/01/23 12:33:20;;;;;;;4.00;1.60;;;21.10;29.70;;;;;;4951133;28;46769;-83
2024/01/23 12:35:47;;;;;;;4.00;1.37;;;21.10;29.70;;;;;;4945771;28;45190;-84
2024/01/23 12:38:16;;;;;;;3.80;1.40;;;21.20;29.80;;;;;;4944209;28;44987;-82
2024/01/23 12:40:42;;;;;;;3.75;1.27;;;21.20;29.70;;;;;;4957044;28;45551;-82
2024/01/23 12:43:09;;;;;;;4.57;1.40;;;21.20;29.70;;;;;;4980323;28;46663;-82
2024/01/23 12:45:34;;;;;;;3.13;1.30;;;21.20;29.90;;;;;;4962782;28;44924;-82
2024/01/23 12:48:00;;;;;;;3.60;1.50;;;21.30;29.70;;;;;;4963709;28;45542;-81
2024/01/23 12:50:29;;;;;;;3.17;1.30;;;21.30;29.80;;;;;;4947266;28;45616;-81
2024/01/23 12:52:56;;;;;;;4.10;1.60;;;21.30;29.80;;;;;;4962390;28;45595;-83
2024/01/23 12:55:22;;;;;;;4.82;1.77;;;21.30;29.80;;;;;;4943576;28;45874;-82
2024/01/23 12:57:48;;;;;;;4.15;1.33;;;21.40;29.80;;;;;;4963146;28;45241;-82
2024/01/23 13:00:16;;;;;;;3.85;1.40;;;21.40;29.70;;;;;;4959893;28;45743;-82
2024/01/23 13:02:42;;;;;;;4.22;1.38;;;21.40;29.70;;;;;;4979012;28;45302;-82
2024/01/23 13:05:09;;;;;;;4.45;1.40;;;21.50;29.70;;;;;;4962512;28;45417;-81
2024/01/23 13:07:34;;;;;;;4.40;1.60;;;21.50;29.70;;;;;;4995074;28;44995;-82
2024/01/23 13:10:02;;;;;;;3.87;1.37;;;21.50;29.70;;;;;;4946725;28;45591;-81
2024/01/23 13:12:35;;;;;;;3.40;1.25;;;21.50;29.70;;;;;;4956565;28;46546;-81
2024/01/23 13:15:02;;;;;;;3.33;1.23;;;21.60;29.70;;;;;;4959039;28;45616;-82
2024/01/23 13:17:39;;;;;;;3.53;1.40;;;21.60;29.70;;;;;;4962573;28;45310;-81
2024/01/23 13:20:10;;;;;;;4.00;1.60;;;21.70;29.70;;;;;;4945300;28;45475;-83
2024/01/23 13:22:43;;;;;;;4.27;1.60;;;21.70;29.70;;;;;;4978678;28;46363;-81
2024/01/23 13:25:15;;;;;;;4.38;1.60;;;21.70;29.60;;;;;;4976757;28;45010;-85
2024/01/23 13:27:40;;;;;;;4.17;1.50;;;21.80;29.60;;;;;;4962192;28;45033;-82
2024/01/23 13:30:15;;;;;;;3.80;1.63;;;21.80;29.60;;;;;;4993423;28;44829;-86
2024/01/23 13:32:41;;;;;;;3.50;1.30;;;21.80;29.60;;;;;;4977320;28;46477;-85
2024/01/23 13:35:07;;;;;;;4.18;1.35;;;21.80;29.60;;;;;;4979147;28;45588;-83
2024/01/23 13:37:33;;;;;;;3.53;1.53;;;21.80;29.60;;;;;;4956128;28;44840;-84
2024/01/23 13:39:59;;;;;;;4.20;1.50;;;21.90;29.60;;;;;;4973022;28;44920;-84
2024/01/23 13:42:25;;;;;;;3.05;1.30;;;21.90;29.60;;;;;;4970011;28;46470;-82
2024/01/23 13:44:51;;;;;;;4.28;1.38;;;22.00;29.60;;;;;;4960007;28;44642;-83
2024/01/23 13:47:16;;;;;;;3.40;1.33;;;22.00;29.50;;;;;;4955533;28;44687;-83
2024/01/23 13:49:45;;;;;;;4.20;1.60;;;22.00;29.50;;;;;;4946214;28;45685;-83
2024/01/23 13:52:11;;;;;;;3.63;1.50;;;22.00;29.50;;;;;;4983275;28;45553;-81
2024/01/23 13:54:37;;;;;;;3.07;1.40;;;22.00;29.50;;;;;;4978607;28;45405;-83
2024/01/23 13:57:04;;;;;;;4.57;1.50;;;22.00;29.50;;;;;;4966283;28;45078;-83
2024/01/23 13:59:29;;;;;;;4.70;1.60;;;22.10;29.50;;;;;;4966862;28;45220;-82
2024/01/23 14:01:55;;;;;;;4.83;1.63;;;22.10;29.50;;;;;;4955632;28;47194;-81
2024/01/23 14:04:20;;;;;;;3.23;1.40;;;22.10;29.50;;;;;;4978194;28;45412;-82
2024/01/23 14:06:46;;;;;;;3.80;1.40;;;22.10;29.40;;;;;;4977872;28;45645;-83
2024/01/23 14:09:12;;;;;;;3.90;1.50;;;22.20;29.40;;;;;;4983973;28;44908;-82
2024/01/23 14:11:39;;;;;;;3.88;1.67;;;22.20;29.40;;;;;;4955599;28;46091;-82
2024/01/23 14:14:05;;;;;;;4.13;1.70;;;22.20;29.40;;;;;;4996232;28;45845;-82
2024/01/23 14:16:31;;;;;;;3.78;1.73;;;22.30;29.40;;;;;;4977813;28;45140;-82
2024/01/23 14:18:58;;;;;;;3.17;1.67;;;22.30;29.40;;;;;;4959929;28;45401;-82
2024/01/23 14:21:24;;;;;;;3.95;1.75;;;22.30;29.40;;;;;;4968683;28;46278;-84
2024/01/23 14:23:50;;;;;;;3.90;2.05;;;22.40;29.40;;;;;;4972362;28;45203;-82
2024/01/23 14:26:16;;;;;;;3.93;1.80;;;22.40;29.80;;;;;;4972259;28;45360;-82
2024/01/23 14:28:42;;;;;;;4.10;1.90;;;22.40;29.40;;;;;;4973909;28;45349;-82
2024/01/23 14:31:10;;;;;;;4.85;1.83;;;22.50;29.40;;;;;;4978320;28;46365;-82
2024/01/23 14:33:36;;;;;;;5.22;1.90;;;22.50;29.30;;;;;;4977835;28;45251;-82
2024/01/23 14:36:03;;;;;;;4.10;1.60;;;22.50;29.30;;;;;;4957524;28;44919;-81
2024/01/23 14:38:30;;;;;;;4.63;1.80;;;22.50;29.30;;;;;;4979871;28;45565;-81
2024/01/23 14:40:55;;;;;;;4.57;2.10;;;22.50;29.30;;;;;;4981129;28;46268;-82
2024/01/23 14:43:23;;;;;;;5.70;1.90;;;22.60;29.30;;;;;;4963593;28;45244;-83
2024/01/23 14:45:49;;;;;;;4.03;1.70;;;22.60;29.30;;;;;;4984629;28;45330;-84
2024/01/23 14:48:16;;;;;;;4.03;1.77;;;22.60;29.20;;;;;;4972719;28;45565;-82
2024/01/23 14:50:45;;;;;;;5.80;2.15;;;22.70;29.20;;;;;;4972505;28;46526;-83
2024/01/23 14:53:11;;;;;;;5.45;1.90;;;22.70;29.20;;;;;;4976961;28;45244;-81
2024/01/23 14:55:37;;;;;;;4.03;1.80;;;22.80;29.20;;;;;;4975088;28;45148;-82
2024/01/23 14:58:04;;;;;;;3.53;1.52;;;22.70;29.10;;;;;;4974945;28;46432;-82
2024/01/23 15:00:30;;;;;;;4.88;1.70;;;22.80;29.10;;;;;;4970056;28;45338;-82
2024/01/23 15:02:56;;;;;;;4.03;1.97;;;22.80;29.00;;;;;;4956560;28;45258;-82
2024/01/23 15:05:22;;;;;;;4.95;1.70;;;22.80;29.00;;;;;;4977839;28;45336;-82
2024/01/23 15:07:48;;;;;;;4.72;1.42;;;22.90;29.00;;;;;;4978210;28;45588;-82
2024/01/23 15:10:14;;;;;;;3.57;1.47;;;22.90;29.00;;;;;;4986219;28;46022;-82
2024/01/23 15:12:41;;;;;;;2.97;1.40;;;22.90;29.00;;;;;;5005143;28;45473;-83
2024/01/23 15:15:07;;;;;;;3.78;1.65;;;22.90;28.90;;;;;;4954165;28;45476;-84
2024/01/23 15:17:33;;;;;;;4.40;1.60;;;23.00;29.00;;;;;;4959152;28;45728;-82
2024/01/23 15:19:59;;;;;;;3.42;1.42;;;23.00;29.00;;;;;;4959301;28;46626;-82
2024/01/23 15:22:25;;;;;;;3.87;1.50;;;23.00;28.90;;;;;;4957162;28;45187;-85
2024/01/23 15:24:51;;;;;;;3.90;1.60;;;23.00;28.90;;;;;;4973700;28;45656;-82
2024/01/23 15:27:17;;;;;;;2.55;1.42;;;23.00;28.90;;;;;;4975536;28;45349;-83
2024/01/23 15:29:43;;;;;;;3.40;1.47;;;23.00;28.80;;;;;;4947296;28;46309;-82
2024/01/23 15:32:09;;;;;;;4.00;1.40;;;23.10;28.80;;;;;;4984627;28;45057;-82
2024/01/23 15:34:36;;;;;;;3.80;1.70;;;23.00;28.80;;;;;;4980439;28;45015;-82
2024/01/23 15:37:02;;;;;;;4.55;1.55;;;23.10;28.70;;;;;;4961127;28;45231;-82
2024/01/23 15:39:28;;;;;;;2.83;1.48;;;23.10;28.90;;;;;;4987401;28;45576;-85
2024/01/23 15:41:55;;;;;;;4.60;1.80;;;23.10;28.70;;;;;;4960187;28;45548;-82
2024/01/23 15:44:21;;;;;;;4.15;1.65;;;23.10;28.70;;;;;;4965434;28;45080;-81
2024/01/23 15:46:48;;;;;;;3.65;1.48;;;23.10;28.70;;;;;;4979981;28;45067;-82
2024/01/23 15:49:14;;;;;;;5.32;1.63;;;23.20;28.70;;;;;;4963479;28;46583;-82
2024/01/23 15:51:39;;;;;;;3.78;1.60;;;23.20;28.70;;;;;;4981096;28;45694;-82
2024/01/23 15:54:06;;;;;;;3.20;1.60;;;23.30;28.70;;;;;;4988241;28;45291;-82
2024/01/23 15:56:32;;;;;;;3.08;1.30;;;23.20;28.60;;;;;;4946763;28;45252;-81
2024/01/23 15:58:58;;;;;;;3.80;1.40;;;23.20;28.60;;;;;;4978931;28;46277;-82
2024/01/23 16:01:24;;;;;;;3.83;1.60;;;23.20;28.60;;;;;;4955454;28;44979;-82
2024/01/23 16:03:50;;;;;;;3.47;1.40;;;23.20;28.60;;;;;;4951079;28;44980;-85
2024/01/23 16:06:16;;;;;;;3.10;1.45;;;23.20;28.50;;;;;;4967586;28;45502;-82
2024/01/23 16:08:42;;;;;;;4.07;1.70;;;23.20;28.50;;;;;;4970488;28;45331;-82
2024/01/23 16:11:07;;;;;;;4.18;1.42;;;23.20;28.50;;;;;;4968940;28;44627;-82
2024/01/23 16:13:33;;;;;;;3.87;1.47;;;23.20;28.50;;;;;;4936538;28;44771;-82
2024/01/23 16:16:01;;;;;;;3.20;1.33;;;23.30;28.60;;;;;;4929674;28;45069;-82
2024/01/23 16:18:28;;;;;;;3.58;1.65;;;23.30;28.60;;;;;;4952881;28;46211;-82
2024/01/23 16:20:54;;;;;;;3.88;1.50;;;23.30;28.50;;;;;;4952337;28;45251;-81
2024/01/23 16:23:20;;;;;;;3.83;1.73;;;23.20;28.40;;;;;;4951474;28;45906;-82
2024/01/23 16:25:46;;;;;;;4.43;1.60;;;23.30;28.50;;;;;;4982926;28;45284;-82
2024/01/23 16:28:12;;;;;;;4.85;1.80;;;23.30;28.50;;;;;;4965726;28;45549;-83
2024/01/23 16:30:37;;;;;;;4.60;1.63;;;23.30;28.50;;;;;;4966146;28;45761;-82
2024/01/23 16:33:03;;;;;;;3.33;1.50;;;23.30;28.50;;;;;;4965737;28;44687;-81
2024/01/23 16:35:29;;;;;;;2.87;1.40;;;23.30;28.40;;;;;;4927505;28;45051;-82
2024/01/23 16:37:55;;;;;;;3.42;1.70;;;23.30;28.40;;;;;;4980057;28;45696;-84
2024/01/23 16:40:21;;;;;;;4.05;1.55;;;23.30;28.40;;;;;;4953063;28;45407;-83
2024/01/23 16:42:48;;;;;;;3.75;1.40;;;23.30;28.40;;;;;;4978291;28;45017;-83
2024/01/23 16:45:14;;;;;;;3.97;1.80;;;23.30;28.40;;;;;;4952120;28;45373;-83
2024/01/23 16:47:40;;;;;;;3.72;1.80;;;23.30;28.40;;;;;;4942359;28;47168;-82